createdAt,value
2022-12-12T00:00:45.201Z,4.40
2022-12-12T00:03:13.491Z,1.97
2022-12-12T00:05:41.952Z,2.80
2022-12-12T00:08:11.049Z,3.00
2022-12-12T00:10:38.845Z,1.63
2022-12-12T00:13:06.598Z,1.37
2022-12-12T00:15:34.439Z,1.43
2022-12-12T00:18:02.263Z,3.23
2022-12-12T00:20:30.015Z,1.83
2022-12-12T00:22:57.758Z,1.70
2022-12-12T00:25:26.808Z,1.97
2022-12-12T00:27:54.547Z,1.60
2022-12-12T00:30:22.404Z,2.87
2022-12-12T00:32:50.134Z,1.87
2022-12-12T00:35:17.944Z,2.10
2022-12-12T00:37:45.704Z,2.10
2022-12-12T00:40:14.474Z,2.13
2022-12-12T00:42:44.201Z,1.07
2022-12-12T00:45:12.936Z,1.87
2022-12-12T00:47:40.748Z,1.27
2022-12-12T00:50:09.543Z,2.00
2022-12-12T00:52:37.295Z,1.97
2022-12-12T00:55:06.109Z,1.73
2022-12-12T00:57:34.185Z,1.60
2022-12-12T01:00:03.560Z,2.10
2022-12-12T01:02:31.350Z,1.20
2022-12-12T01:05:00.091Z,2.77
2022-12-12T01:07:28.605Z,1.23
2022-12-12T01:09:56.333Z,4.30
2022-12-12T01:12:24.063Z,1.00
2022-12-12T01:14:51.824Z,2.30
2022-12-12T01:17:20.911Z,2.50
2022-12-12T01:19:48.612Z,1.57
2022-12-12T01:22:16.393Z,1.70
2022-12-12T01:24:44.218Z,1.23
2022-12-12T01:27:12.142Z,2.80
2022-12-12T01:29:39.861Z,1.30
2022-12-12T01:32:07.598Z,2.43
2022-12-12T01:34:36.684Z,2.50
2022-12-12T01:37:04.399Z,1.70
2022-12-12T01:39:32.229Z,1.37
2022-12-12T01:41:59.952Z,2.43
2022-12-12T01:44:46.937Z,1.43
2022-12-12T01:47:16.608Z,2.17
2022-12-12T01:49:49.691Z,1.17
2022-12-12T01:52:22.483Z,1.50
2022-12-12T01:54:54.584Z,2.37
2022-12-12T01:57:27.122Z,4.37
2022-12-12T01:59:54.906Z,1.27
2022-12-12T02:02:22.708Z,2.07
2022-12-12T02:04:51.906Z,1.03
2022-12-12T02:07:19.758Z,1.13
2022-12-12T02:09:50.487Z,3.00
2022-12-12T02:12:18.481Z,0.87
2022-12-12T02:14:49.901Z,2.10
2022-12-12T02:17:44.505Z,1.00
2022-12-12T02:20:41.597Z,2.40
2022-12-12T02:23:46.276Z,1.20
2022-12-12T02:26:53.538Z,1.60
2022-12-12T02:29:56.339Z,1.60
2022-12-12T02:32:32.257Z,2.40
2022-12-12T02:35:07.468Z,2.37
2022-12-12T02:37:41.940Z,1.50
2022-12-12T02:40:16.788Z,1.33
2022-12-12T02:42:48.231Z,2.00
2022-12-12T02:45:21.024Z,1.13
2022-12-12T02:47:58.496Z,1.40
2022-12-12T02:50:29.359Z,1.30
2022-12-12T02:52:57.428Z,1.80
2022-12-12T02:55:25.172Z,1.83
2022-12-12T02:57:55.251Z,1.33
2022-12-12T03:00:23.084Z,1.57
2022-12-12T03:03:33.215Z,1.83
2022-12-12T03:06:28.491Z,1.57
2022-12-12T03:09:05.970Z,1.57
2022-12-12T03:11:55.071Z,1.37
2022-12-12T03:14:27.017Z,0.90
2022-12-12T03:17:02.007Z,1.47
2022-12-12T03:19:40.900Z,3.00
2022-12-12T03:22:13.215Z,1.17
2022-12-12T03:24:49.502Z,2.13
2022-12-12T03:27:22.908Z,1.37
2022-12-12T03:29:55.384Z,1.97
2022-12-12T03:32:26.629Z,2.00
2022-12-12T03:34:59.328Z,2.00
2022-12-12T03:37:31.866Z,1.10
2022-12-12T03:40:04.866Z,1.23
2022-12-12T03:42:39.537Z,1.40
2022-12-12T03:45:15.103Z,1.13
2022-12-12T03:47:48.780Z,1.20
2022-12-12T03:50:21.846Z,1.63
2022-12-12T03:52:55.728Z,3.03
2022-12-12T03:55:27.993Z,2.90
2022-12-12T03:57:59.864Z,1.77
2022-12-12T04:00:30.766Z,0.60
2022-12-12T04:03:06.199Z,1.63
2022-12-12T04:06:02.888Z,2.03
2022-12-12T04:08:31.397Z,0.90
2022-12-12T04:11:22.870Z,1.90
2022-12-12T04:13:58.616Z,3.07
2022-12-12T04:16:31.203Z,3.50
2022-12-12T04:19:04.064Z,1.20
2022-12-12T04:21:56.205Z,2.50
2022-12-12T04:24:30.247Z,1.50
2022-12-12T04:27:05.268Z,1.20
2022-12-12T04:29:39.743Z,1.80
2022-12-12T04:32:15.574Z,1.63
2022-12-12T04:34:49.280Z,0.70
2022-12-12T04:37:21.776Z,1.00
2022-12-12T04:39:53.616Z,2.00
2022-12-12T04:42:24.696Z,1.47
2022-12-12T04:44:55.321Z,2.13
2022-12-12T04:47:24.719Z,1.90
2022-12-12T04:49:53.955Z,1.53
2022-12-12T04:52:26.335Z,2.20
2022-12-12T04:55:00.788Z,1.93
2022-12-12T04:57:34.039Z,1.87
2022-12-12T05:00:02.075Z,0.70
2022-12-12T05:02:36.701Z,1.43
2022-12-12T05:05:08.892Z,1.03
2022-12-12T05:07:40.929Z,1.27
2022-12-12T05:10:11.870Z,1.70
2022-12-12T05:12:45.172Z,3.17
2022-12-12T05:15:14.089Z,1.23
2022-12-12T05:17:45.651Z,2.07
2022-12-12T05:20:13.950Z,1.60
2022-12-12T05:22:43.473Z,1.07
2022-12-12T05:25:12.083Z,1.13
2022-12-12T05:27:40.144Z,1.20
2022-12-12T05:30:09.396Z,1.40
2022-12-12T05:32:37.144Z,1.03
2022-12-12T05:35:05.910Z,2.60
2022-12-12T05:37:33.648Z,2.20
2022-12-12T05:40:02.840Z,2.00
2022-12-12T05:42:30.689Z,1.93
2022-12-12T05:44:58.400Z,0.83
2022-12-12T05:47:26.283Z,2.20
2022-12-12T05:49:54.219Z,1.00
2022-12-12T05:52:21.951Z,1.93
2022-12-12T05:54:50.137Z,1.20
2022-12-12T05:57:19.266Z,2.40
2022-12-12T05:59:47.144Z,1.80
2022-12-12T06:02:15.595Z,1.43
2022-12-12T06:04:43.633Z,1.30
2022-12-12T06:07:11.364Z,1.80
2022-12-12T06:09:39.113Z,1.10
2022-12-12T06:12:07.182Z,3.83
2022-12-12T06:14:36.225Z,1.73
2022-12-12T06:17:04.003Z,0.87
2022-12-12T06:19:31.839Z,1.30
2022-12-12T06:21:59.570Z,2.57
2022-12-12T06:24:27.310Z,1.83
2022-12-12T06:26:55.027Z,1.37
2022-12-12T06:29:22.741Z,2.43
2022-12-12T06:31:51.787Z,3.43
2022-12-12T06:34:19.527Z,1.63
2022-12-12T06:36:47.275Z,4.80
2022-12-12T06:39:15.025Z,1.10
2022-12-12T06:41:42.752Z,1.33
2022-12-12T06:44:10.652Z,0.90
2022-12-12T06:46:38.410Z,1.97
2022-12-12T06:49:09.812Z,1.60
2022-12-12T06:51:44.217Z,1.00
2022-12-12T06:54:12.632Z,2.37
2022-12-12T06:56:46.286Z,1.67
2022-12-12T06:59:16.396Z,1.03
2022-12-12T07:01:44.622Z,2.93
2022-12-12T07:04:14.879Z,1.40
2022-12-12T07:06:43.006Z,3.03
2022-12-12T07:09:10.808Z,1.73
2022-12-12T07:11:40.714Z,2.07
2022-12-12T07:14:08.647Z,1.53
2022-12-12T07:16:36.432Z,1.60
2022-12-12T07:19:04.648Z,1.83
2022-12-12T07:21:33.767Z,1.87
2022-12-12T07:24:01.539Z,3.13
2022-12-12T07:26:29.261Z,2.17
2022-12-12T07:28:57.112Z,1.43
2022-12-12T07:31:26.326Z,1.30
2022-12-12T07:33:55.096Z,2.03
2022-12-12T07:36:22.888Z,1.30
2022-12-12T07:38:51.975Z,1.70
2022-12-12T07:41:21.008Z,1.10
2022-12-12T07:43:50.954Z,2.83
2022-12-12T07:46:20.979Z,0.80
2022-12-12T07:48:49.223Z,1.07
2022-12-12T07:51:17.864Z,2.87
2022-12-12T07:53:46.675Z,1.43
2022-12-12T07:56:17.428Z,1.47
2022-12-12T07:58:46.026Z,2.50
2022-12-12T08:01:16.151Z,0.50
2022-12-12T08:03:44.770Z,1.50
2022-12-12T08:06:13.179Z,1.17
2022-12-12T08:08:41.045Z,3.27
2022-12-12T08:11:11.082Z,0.90
2022-12-12T08:13:41.066Z,1.17
2022-12-12T08:16:14.554Z,1.23
2022-12-12T08:18:42.498Z,2.93
2022-12-12T08:21:11.451Z,1.00
2022-12-12T08:23:39.790Z,1.63
2022-12-12T08:26:08.947Z,1.73
2022-12-12T08:28:37.136Z,1.93
2022-12-12T08:31:06.436Z,3.40
2022-12-12T08:33:34.308Z,1.47
2022-12-12T08:36:01.995Z,0.93
2022-12-12T08:38:30.287Z,2.03
2022-12-12T08:40:58.055Z,1.57
2022-12-12T08:43:25.763Z,1.23
2022-12-12T08:45:59.607Z,1.33
2022-12-12T08:48:28.691Z,1.33
2022-12-12T08:50:56.425Z,0.93
2022-12-12T08:53:24.475Z,3.00
2022-12-12T08:55:52.493Z,1.80
2022-12-12T08:58:20.243Z,1.23
2022-12-12T09:00:48.053Z,2.17
2022-12-12T09:03:15.912Z,1.23
2022-12-12T09:05:45.797Z,2.07
2022-12-12T09:08:14.526Z,0.77
2022-12-12T09:10:43.361Z,1.40
2022-12-12T09:13:11.805Z,2.00
2022-12-12T09:15:40.300Z,1.73
2022-12-12T09:18:08.065Z,1.53
2022-12-12T09:20:35.961Z,0.90
2022-12-12T09:23:05.049Z,1.70
2022-12-12T09:25:32.783Z,1.10
2022-12-12T09:28:00.544Z,2.00
2022-12-12T09:30:28.273Z,2.10
2022-12-12T09:32:56.551Z,1.27
2022-12-12T09:35:24.321Z,1.37
2022-12-12T09:37:52.120Z,1.13
2022-12-12T09:40:27.645Z,1.57
2022-12-12T09:42:55.622Z,0.90
2022-12-12T09:45:23.678Z,0.83
2022-12-12T09:47:55.616Z,1.83
2022-12-12T09:50:28.188Z,2.27
2022-12-12T09:52:59.565Z,1.30
2022-12-12T09:55:39.556Z,1.07
2022-12-12T09:58:15.333Z,1.40
2022-12-12T10:00:48.275Z,1.60
2022-12-12T10:03:30.963Z,2.17
2022-12-12T10:09:07.751Z,1.27
2022-12-12T10:11:54.739Z,0.80
2022-12-12T10:14:28.871Z,1.27
2022-12-12T10:16:59.207Z,1.30
2022-12-12T10:19:30.731Z,2.60
2022-12-12T10:22:05.389Z,1.60
2022-12-12T10:24:40.512Z,0.83
2022-12-12T10:27:13.776Z,0.87
2022-12-12T10:29:45.252Z,2.00
2022-12-12T10:32:22.642Z,1.63
2022-12-12T10:35:00.458Z,1.10
2022-12-12T10:37:44.295Z,0.70
2022-12-12T10:40:25.659Z,0.97
2022-12-12T10:43:00.252Z,1.67
2022-12-12T10:45:38.180Z,1.30
2022-12-12T10:48:06.464Z,1.20
2022-12-12T10:50:37.966Z,1.20
2022-12-12T10:53:08.638Z,1.83
2022-12-12T10:55:44.589Z,2.63
2022-12-12T10:58:16.811Z,1.30
2022-12-12T11:00:46.263Z,1.77
2022-12-12T11:03:24.752Z,1.10
2022-12-12T11:05:53.355Z,1.40
2022-12-12T11:08:26.587Z,0.83
2022-12-12T11:11:04.282Z,1.47
2022-12-12T11:13:39.741Z,0.80
2022-12-12T11:16:13.948Z,1.10
2022-12-12T11:18:44.411Z,1.70
2022-12-12T11:21:14.723Z,0.60
2022-12-12T11:23:48.530Z,1.43
2022-12-12T11:26:18.688Z,1.13
2022-12-12T11:28:54.155Z,1.30
2022-12-12T11:31:25.197Z,2.17
2022-12-12T11:33:55.702Z,1.23
2022-12-12T11:36:28.720Z,1.07
2022-12-12T11:38:57.491Z,1.70
2022-12-12T11:41:25.285Z,1.63
2022-12-12T11:44:01.318Z,1.53
2022-12-12T11:46:30.511Z,0.70
2022-12-12T11:49:01.049Z,0.80
2022-12-12T11:51:34.824Z,1.97
2022-12-12T11:54:05.703Z,1.03
2022-12-12T11:56:51.066Z,1.00
2022-12-12T11:59:42.700Z,0.93
2022-12-12T12:02:54.347Z,2.00
2022-12-12T12:05:28.884Z,1.17
2022-12-12T12:08:10.831Z,0.63
2022-12-12T12:10:51.708Z,2.17
2022-12-12T12:13:33.580Z,1.23
2022-12-12T12:16:12.348Z,0.90
2022-12-12T12:18:53.060Z,0.87
2022-12-12T12:21:38.179Z,1.20
2022-12-12T12:24:22.472Z,0.77
2022-12-12T12:27:00.831Z,1.30
2022-12-12T12:29:42.671Z,0.97
2022-12-12T12:32:18.725Z,0.77
2022-12-12T12:34:57.229Z,1.27
2022-12-12T12:37:35.756Z,0.67
2022-12-12T12:40:22.400Z,1.50
2022-12-12T12:43:11.705Z,0.60
2022-12-12T12:45:46.275Z,1.50
2022-12-12T12:48:21.129Z,3.90
2022-12-12T12:50:54.022Z,7.27
2022-12-12T12:53:29.992Z,3.07
2022-12-12T12:56:02.042Z,4.60
2022-12-12T12:58:35.788Z,5.67
2022-12-12T13:01:06.443Z,9.40
2022-12-12T13:03:43.429Z,9.87
2022-12-12T13:06:17.255Z,6.27
2022-12-12T13:08:53.575Z,6.50
2022-12-12T13:11:26.302Z,9.37
2022-12-12T13:13:57.841Z,7.20
2022-12-12T13:16:31.356Z,4.60
2022-12-12T13:19:05.813Z,7.73
2022-12-12T13:21:38.333Z,7.57
2022-12-12T13:24:13.469Z,2.33
2022-12-12T13:26:46.928Z,2.67
2022-12-12T13:29:31.344Z,5.40
2022-12-12T13:32:26.687Z,6.20
2022-12-12T13:34:58.987Z,5.10
2022-12-12T13:37:27.521Z,4.07
2022-12-12T13:40:00.725Z,4.10
2022-12-12T13:42:54.102Z,3.07
2022-12-12T13:45:39.099Z,2.03
2022-12-12T13:48:10.365Z,2.47
2022-12-12T13:50:38.100Z,3.70
2022-12-12T13:53:19.755Z,4.17
2022-12-12T13:55:47.816Z,1.90
2022-12-12T13:58:32.238Z,2.83
2022-12-12T14:01:31.436Z,1.83
2022-12-12T14:04:00.165Z,2.10
2022-12-12T14:06:30.470Z,2.50
2022-12-12T14:08:59.356Z,1.83
2022-12-12T14:11:32.745Z,2.53
2022-12-12T14:14:18.687Z,2.80
2022-12-12T14:16:53.604Z,2.70
2022-12-12T14:19:32.885Z,2.13
2022-12-12T14:22:00.683Z,1.90
2022-12-12T14:24:54.227Z,1.43
2022-12-12T14:28:02.749Z,2.87
2022-12-12T14:30:47.227Z,3.27
2022-12-12T14:33:50.956Z,2.73
2022-12-12T14:36:49.562Z,2.47
2022-12-12T14:39:29.648Z,1.40
2022-12-12T14:41:58.528Z,1.73
2022-12-12T14:44:36.173Z,2.17
2022-12-12T14:47:11.875Z,1.73
2022-12-12T14:49:39.636Z,2.13
2022-12-12T14:52:07.443Z,1.90
2022-12-12T14:54:36.773Z,1.00
2022-12-12T14:57:08.475Z,2.03
2022-12-12T14:59:38.699Z,3.07
2022-12-12T15:02:21.721Z,2.40
2022-12-12T15:04:52.677Z,3.33
2022-12-12T15:07:26.237Z,1.73
2022-12-12T15:09:54.440Z,2.07
2022-12-12T15:12:24.812Z,2.00
2022-12-12T15:14:55.441Z,1.30
2022-12-12T15:17:28.266Z,2.03
2022-12-12T15:19:59.579Z,1.57
2022-12-12T15:22:29.534Z,2.20
2022-12-12T15:25:01.170Z,3.23
2022-12-12T15:27:32.021Z,2.37
2022-12-12T15:30:01.380Z,1.70
2022-12-12T15:32:30.980Z,1.67
2022-12-12T15:35:04.892Z,2.47
2022-12-12T15:37:33.529Z,1.93
2022-12-12T15:40:20.311Z,2.10
2022-12-12T15:42:53.293Z,1.53
2022-12-12T15:45:25.897Z,3.20
2022-12-12T15:47:56.535Z,1.57
2022-12-12T15:50:26.515Z,0.83
2022-12-12T15:53:01.648Z,1.83
2022-12-12T15:55:30.204Z,2.53
2022-12-12T15:57:58.544Z,2.40
2022-12-12T16:00:31.952Z,1.80
2022-12-12T16:03:03.479Z,1.50
2022-12-12T16:05:34.070Z,3.47
2022-12-12T16:08:31.431Z,2.63
2022-12-12T16:11:01.028Z,2.20
2022-12-12T16:13:36.791Z,2.50
2022-12-12T16:16:34.379Z,2.13
2022-12-12T16:19:04.123Z,1.70
2022-12-12T16:21:32.466Z,1.63
2022-12-12T16:24:11.087Z,1.50
2022-12-12T16:26:38.853Z,3.40
2022-12-12T16:29:06.562Z,2.73
2022-12-12T16:31:34.555Z,2.70
2022-12-12T16:34:05.068Z,4.17
2022-12-12T16:36:36.981Z,1.30
2022-12-12T16:39:10.605Z,2.00
2022-12-12T16:41:38.446Z,2.03
2022-12-12T16:44:06.184Z,3.60
2022-12-12T16:46:33.920Z,2.27
2022-12-12T16:49:04.372Z,1.93
2022-12-12T16:51:35.681Z,2.00
2022-12-12T16:54:03.451Z,1.10
2022-12-12T16:56:31.218Z,1.53
2022-12-12T16:58:58.942Z,0.80
2022-12-12T17:01:26.731Z,1.47
2022-12-12T17:03:54.570Z,3.13
2022-12-12T17:06:22.348Z,1.30
2022-12-12T17:08:51.494Z,3.17
2022-12-12T17:11:19.278Z,3.50
2022-12-12T17:13:49.913Z,1.47
2022-12-12T17:16:21.399Z,2.00
2022-12-12T17:18:51.994Z,2.17
2022-12-12T17:21:20.174Z,3.00
2022-12-12T17:23:47.899Z,1.50
2022-12-12T17:26:17.163Z,3.63
2022-12-12T17:28:44.900Z,2.70
2022-12-12T17:31:12.629Z,1.97
2022-12-12T17:33:50.049Z,1.10
2022-12-12T17:36:18.673Z,1.80
2022-12-12T17:38:48.247Z,3.37
2022-12-12T17:41:17.308Z,1.40
2022-12-12T17:43:46.548Z,0.77
2022-12-12T17:46:18.067Z,2.60
2022-12-12T17:48:47.571Z,1.83
2022-12-12T17:51:17.077Z,1.43
2022-12-12T17:53:45.047Z,1.60
2022-12-12T17:56:15.186Z,1.70
2022-12-12T17:58:46.652Z,1.27
2022-12-12T18:01:16.249Z,1.43
2022-12-12T18:03:45.249Z,2.93
2022-12-12T18:06:13.551Z,2.57
2022-12-12T18:08:42.195Z,1.43
2022-12-12T18:11:11.767Z,1.20
2022-12-12T18:13:41.344Z,1.43
2022-12-12T18:16:13.599Z,1.60
2022-12-12T18:18:42.199Z,2.30
2022-12-12T18:21:15.772Z,2.13
2022-12-12T18:23:47.600Z,4.50
2022-12-12T18:26:21.814Z,2.13
2022-12-12T18:28:51.697Z,1.07
2022-12-12T18:31:21.030Z,4.03
2022-12-12T18:33:49.207Z,2.47
2022-12-12T18:36:20.121Z,9.43
2022-12-12T18:38:48.536Z,11.30
2022-12-12T18:41:17.170Z,6.60
2022-12-12T18:43:45.160Z,5.87
2022-12-12T18:46:14.347Z,5.63
2022-12-12T18:48:45.317Z,4.53
2022-12-12T18:51:15.280Z,5.53
2022-12-12T18:53:43.499Z,5.00
2022-12-12T18:56:13.671Z,5.57
2022-12-12T18:58:43.206Z,5.00
2022-12-12T19:01:12.950Z,5.57
2022-12-12T19:03:44.258Z,5.93
2022-12-12T19:06:13.957Z,6.77
2022-12-12T19:08:42.195Z,4.23
2022-12-12T19:11:11.085Z,5.17
2022-12-12T19:13:38.972Z,5.40
2022-12-12T19:16:07.859Z,4.23
2022-12-12T19:18:36.035Z,4.50
2022-12-12T19:21:08.430Z,5.20
2022-12-12T19:23:36.831Z,3.87
2022-12-12T19:26:06.081Z,4.20
2022-12-12T19:28:33.962Z,4.07
2022-12-12T19:31:06.440Z,3.43
2022-12-12T19:33:34.316Z,2.43
2022-12-12T19:36:02.306Z,4.37
2022-12-12T19:38:31.872Z,4.97
2022-12-12T19:41:03.792Z,3.87
2022-12-12T19:43:31.604Z,3.43
2022-12-12T19:46:04.646Z,2.20
2022-12-12T19:48:32.420Z,2.20
2022-12-12T19:51:08.792Z,2.00
2022-12-12T19:53:39.506Z,2.70
2022-12-12T19:56:08.591Z,3.67
2022-12-12T19:58:38.566Z,2.90
2022-12-12T20:01:09.099Z,3.03
2022-12-12T20:03:37.277Z,4.30
2022-12-12T20:06:07.183Z,5.40
2022-12-12T20:08:35.841Z,3.20
2022-12-12T20:11:06.485Z,3.13
2022-12-12T20:13:34.790Z,2.80
2022-12-12T20:16:06.695Z,3.77
2022-12-12T20:18:34.586Z,2.40
2022-12-12T20:21:03.388Z,2.33
2022-12-12T20:23:31.723Z,3.07
2022-12-12T20:26:02.536Z,3.10
2022-12-12T20:28:32.957Z,2.73
2022-12-12T20:31:05.652Z,2.70
2022-12-12T20:33:33.620Z,4.90
2022-12-12T20:36:02.611Z,3.83
2022-12-12T20:38:31.323Z,1.20
2022-12-12T20:40:59.069Z,2.87
2022-12-12T20:43:28.238Z,3.20
2022-12-12T20:45:57.411Z,2.00
2022-12-12T20:48:25.277Z,2.20
2022-12-12T20:50:54.592Z,2.03
2022-12-12T20:53:22.324Z,2.10
2022-12-12T20:55:50.056Z,4.40
2022-12-12T20:58:17.794Z,2.70
2022-12-12T21:00:46.816Z,1.37
2022-12-12T21:03:15.912Z,3.70
2022-12-12T21:05:43.652Z,3.07
2022-12-12T21:08:11.412Z,5.13
2022-12-12T21:10:39.844Z,1.80
2022-12-12T21:13:07.605Z,1.20
2022-12-12T21:15:35.453Z,1.77
2022-12-12T21:18:03.264Z,2.27
2022-12-12T21:20:32.344Z,1.77
2022-12-12T21:23:00.434Z,2.50
2022-12-12T21:25:28.189Z,1.53
2022-12-12T21:27:57.008Z,1.70
2022-12-12T21:30:24.750Z,1.90
2022-12-12T21:32:52.475Z,2.53
2022-12-12T21:35:20.211Z,2.47
2022-12-12T21:37:49.380Z,2.57
2022-12-12T21:40:17.508Z,3.33
2022-12-12T21:42:46.131Z,2.03
2022-12-12T21:45:16.035Z,2.03
2022-12-12T21:47:44.066Z,1.80
2022-12-12T21:50:12.045Z,2.67
2022-12-12T21:52:39.786Z,2.33
2022-12-12T21:55:09.617Z,1.40
2022-12-12T21:57:37.324Z,1.87
2022-12-12T22:00:05.762Z,2.20
2022-12-12T22:02:40.350Z,3.70
2022-12-12T22:05:08.923Z,2.47
2022-12-12T22:07:36.663Z,4.07
2022-12-12T22:10:10.464Z,1.23
2022-12-12T22:12:40.376Z,2.23
2022-12-12T22:15:08.800Z,2.77
2022-12-12T22:17:36.515Z,2.43
2022-12-12T22:20:04.663Z,3.53
2022-12-12T22:22:32.429Z,2.03
2022-12-12T22:25:00.159Z,1.10
2022-12-12T22:27:27.906Z,2.80
2022-12-12T22:29:56.986Z,2.30
2022-12-12T22:32:25.407Z,3.40
2022-12-12T22:34:54.091Z,2.80
2022-12-12T22:37:21.829Z,1.83
2022-12-12T22:39:49.548Z,3.47
2022-12-12T22:42:17.309Z,2.10
2022-12-12T22:44:45.044Z,1.93
2022-12-12T22:47:14.207Z,2.60
2022-12-12T22:49:42.204Z,1.37
2022-12-12T22:52:09.928Z,1.70
2022-12-12T22:54:37.816Z,0.97
2022-12-12T22:57:05.630Z,2.30
2022-12-12T22:59:33.460Z,1.83
2022-12-12T23:02:01.197Z,3.07
2022-12-12T23:04:30.296Z,2.00
2022-12-12T23:06:58.032Z,1.70
2022-12-12T23:09:26.132Z,1.63
2022-12-12T23:11:54.655Z,1.60
2022-12-12T23:14:26.094Z,1.63
2022-12-12T23:16:54.909Z,2.20
2022-12-12T23:19:25.886Z,1.30
2022-12-12T23:21:55.392Z,1.40
2022-12-12T23:24:23.140Z,1.03
2022-12-12T23:26:51.891Z,2.13
2022-12-12T23:29:20.273Z,2.30
2022-12-12T23:31:48.800Z,1.60
2022-12-12T23:34:20.562Z,1.57
2022-12-12T23:36:48.642Z,0.80
2022-12-12T23:39:17.802Z,2.40
2022-12-12T23:41:46.860Z,1.67
2022-12-12T23:44:17.397Z,1.83
2022-12-12T23:46:45.788Z,3.03
2022-12-12T23:49:16.984Z,2.00
2022-12-12T23:51:47.102Z,2.80
2022-12-12T23:54:17.722Z,2.63
2022-12-12T23:56:46.253Z,1.23
2022-12-12T23:59:17.902Z,1.10
